sensor_id;sensor_type;location;lat;lon;timestamp;P1;durP1;ratioP1;P2;durP2;ratioP2
45198;SDS011;30941;46.422;18.772;2023-08-24T00:02:10;14.57;;;11.00;;
45198;SDS011;30941;46.422;18.772;2023-08-24T00:04:35;14.15;;;11.18;;
45198;SDS011;30941;46.422;18.772;2023-08-24T00:07:01;17.73;;;11.85;;
45198;SDS011;30941;46.422;18.772;2023-08-24T00:09:26;12.32;;;10.45;;
45198;SDS011;30941;46.422;18.772;2023-08-24T00:11:52;13.13;;;10.30;;
45198;SDS011;30941;46.422;18.772;2023-08-24T00:14:18;12.00;;;9.77;;
45198;SDS011;30941;46.422;18.772;2023-08-24T00:16:43;13.05;;;10.43;;
45198;SDS011;30941;46.422;18.772;2023-08-24T00:19:09;13.68;;;10.93;;
45198;SDS011;30941;46.422;18.772;2023-08-24T00:21:34;14.32;;;11.02;;
45198;SDS011;30941;46.422;18.772;2023-08-24T00:23:59;18.33;;;11.15;;
45198;SDS011;30941;46.422;18.772;2023-08-24T00:26:25;13.48;;;10.18;;
45198;SDS011;30941;46.422;18.772;2023-08-24T00:28:50;12.73;;;10.80;;
45198;SDS011;30941;46.422;18.772;2023-08-24T00:31:16;16.85;;;11.88;;
45198;SDS011;30941;46.422;18.772;2023-08-24T00:33:42;13.75;;;10.77;;
45198;SDS011;30941;46.422;18.772;2023-08-24T00:36:07;17.63;;;11.30;;
45198;SDS011;30941;46.422;18.772;2023-08-24T00:38:33;13.90;;;11.07;;
45198;SDS011;30941;46.422;18.772;2023-08-24T00:40:58;13.88;;;10.80;;
45198;SDS011;30941;46.422;18.772;2023-08-24T00:43:27;15.15;;;11.65;;
45198;SDS011;30941;46.422;18.772;2023-08-24T00:45:56;13.90;;;10.90;;
45198;SDS011;30941;46.422;18.772;2023-08-24T00:48:25;16.50;;;9.98;;
45198;SDS011;30941;46.422;18.772;2023-08-24T00:50:53;15.77;;;11.10;;
45198;SDS011;30941;46.422;18.772;2023-08-24T00:53:19;16.20;;;11.70;;
45198;SDS011;30941;46.422;18.772;2023-08-24T00:55:46;14.65;;;10.70;;
45198;SDS011;30941;46.422;18.772;2023-08-24T00:58:11;13.57;;;11.18;;
45198;SDS011;30941;46.422;18.772;2023-08-24T01:00:37;13.98;;;11.30;;
45198;SDS011;30941;46.422;18.772;2023-08-24T01:03:02;16.35;;;11.15;;
45198;SDS011;30941;46.422;18.772;2023-08-24T01:05:28;17.27;;;11.13;;
45198;SDS011;30941;46.422;18.772;2023-08-24T01:07:53;17.90;;;12.15;;
45198;SDS011;30941;46.422;18.772;2023-08-24T01:10:19;14.52;;;11.35;;
45198;SDS011;30941;46.422;18.772;2023-08-24T01:13:02;12.68;;;10.65;;
45198;SDS011;30941;46.422;18.772;2023-08-24T01:18:13;14.15;;;10.98;;
45198;SDS011;30941;46.422;18.772;2023-08-24T01:20:42;12.85;;;11.48;;
45198;SDS011;30941;46.422;18.772;2023-08-24T01:28:11;17.05;;;11.90;;
45198;SDS011;30941;46.422;18.772;2023-08-24T01:30:38;14.48;;;11.80;;
45198;SDS011;30941;46.422;18.772;2023-08-24T01:33:03;16.27;;;12.40;;
45198;SDS011;30941;46.422;18.772;2023-08-24T01:35:30;17.65;;;11.68;;
45198;SDS011;30941;46.422;18.772;2023-08-24T01:37:55;15.07;;;12.40;;
45198;SDS011;30941;46.422;18.772;2023-08-24T01:40:26;15.00;;;12.10;;
45198;SDS011;30941;46.422;18.772;2023-08-24T01:43:05;16.48;;;12.82;;
45198;SDS011;30941;46.422;18.772;2023-08-24T01:45:33;15.45;;;12.30;;
45198;SDS011;30941;46.422;18.772;2023-08-24T01:48:02;14.27;;;11.93;;
45198;SDS011;30941;46.422;18.772;2023-08-24T01:50:28;14.93;;;12.50;;
45198;SDS011;30941;46.422;18.772;2023-08-24T01:52:54;16.50;;;12.68;;
45198;SDS011;30941;46.422;18.772;2023-08-24T01:55:20;16.27;;;11.32;;
45198;SDS011;30941;46.422;18.772;2023-08-24T01:57:46;14.68;;;12.27;;
45198;SDS011;30941;46.422;18.772;2023-08-24T02:00:11;15.18;;;12.68;;
45198;SDS011;30941;46.422;18.772;2023-08-24T02:02:37;15.23;;;12.52;;
45198;SDS011;30941;46.422;18.772;2023-08-24T02:05:03;15.00;;;12.00;;
45198;SDS011;30941;46.422;18.772;2023-08-24T02:07:28;16.13;;;12.45;;
45198;SDS011;30941;46.422;18.772;2023-08-24T02:09:54;13.65;;;12.15;;
45198;SDS011;30941;46.422;18.772;2023-08-24T02:12:19;15.35;;;12.80;;
45198;SDS011;30941;46.422;18.772;2023-08-24T02:14:44;14.18;;;12.07;;
45198;SDS011;30941;46.422;18.772;2023-08-24T02:17:10;16.70;;;12.85;;
45198;SDS011;30941;46.422;18.772;2023-08-24T02:19:35;16.92;;;13.10;;
45198;SDS011;30941;46.422;18.772;2023-08-24T02:22:01;16.30;;;12.43;;
45198;SDS011;30941;46.422;18.772;2023-08-24T02:24:26;17.23;;;12.98;;
45198;SDS011;30941;46.422;18.772;2023-08-24T02:26:52;15.93;;;13.07;;
45198;SDS011;30941;46.422;18.772;2023-08-24T02:29:17;14.35;;;12.88;;
45198;SDS011;30941;46.422;18.772;2023-08-24T02:31:42;17.77;;;12.77;;
45198;SDS011;30941;46.422;18.772;2023-08-24T02:34:08;14.82;;;12.68;;
45198;SDS011;30941;46.422;18.772;2023-08-24T02:36:33;14.68;;;13.00;;
45198;SDS011;30941;46.422;18.772;2023-08-24T02:38:59;15.70;;;12.90;;
45198;SDS011;30941;46.422;18.772;2023-08-24T02:41:25;18.58;;;12.82;;
45198;SDS011;30941;46.422;18.772;2023-08-24T02:43:51;18.73;;;13.57;;
45198;SDS011;30941;46.422;18.772;2023-08-24T02:46:16;18.27;;;13.35;;
45198;SDS011;30941;46.422;18.772;2023-08-24T02:48:43;17.02;;;13.05;;
45198;SDS011;30941;46.422;18.772;2023-08-24T02:51:09;14.98;;;12.93;;
45198;SDS011;30941;46.422;18.772;2023-08-24T02:53:35;20.05;;;14.25;;
45198;SDS011;30941;46.422;18.772;2023-08-24T02:56:00;18.23;;;13.25;;
45198;SDS011;30941;46.422;18.772;2023-08-24T02:58:26;19.48;;;12.68;;
45198;SDS011;30941;46.422;18.772;2023-08-24T03:00:52;18.58;;;13.63;;
45198;SDS011;30941;46.422;18.772;2023-08-24T03:03:17;19.85;;;14.35;;
45198;SDS011;30941;46.422;18.772;2023-08-24T03:05:55;18.73;;;14.95;;
45198;SDS011;30941;46.422;18.772;2023-08-24T03:08:25;18.75;;;13.48;;
45198;SDS011;30941;46.422;18.772;2023-08-24T03:10:50;15.02;;;13.43;;
45198;SDS011;30941;46.422;18.772;2023-08-24T03:13:16;19.00;;;13.75;;
45198;SDS011;30941;46.422;18.772;2023-08-24T03:15:41;17.15;;;14.15;;
45198;SDS011;30941;46.422;18.772;2023-08-24T03:18:07;17.35;;;14.05;;
45198;SDS011;30941;46.422;18.772;2023-08-24T03:20:34;18.02;;;14.02;;
45198;SDS011;30941;46.422;18.772;2023-08-24T03:23:00;17.52;;;14.57;;
45198;SDS011;30941;46.422;18.772;2023-08-24T03:25:25;19.80;;;14.32;;
45198;SDS011;30941;46.422;18.772;2023-08-24T03:27:51;17.42;;;13.82;;
45198;SDS011;30941;46.422;18.772;2023-08-24T03:30:16;18.50;;;14.48;;
45198;SDS011;30941;46.422;18.772;2023-08-24T03:32:42;17.13;;;14.15;;
45198;SDS011;30941;46.422;18.772;2023-08-24T03:35:07;18.27;;;13.95;;
45198;SDS011;30941;46.422;18.772;2023-08-24T03:37:33;18.17;;;14.25;;
45198;SDS011;30941;46.422;18.772;2023-08-24T03:39:58;15.80;;;13.90;;
45198;SDS011;30941;46.422;18.772;2023-08-24T03:42:24;17.25;;;13.43;;
45198;SDS011;30941;46.422;18.772;2023-08-24T03:44:49;16.60;;;13.43;;
45198;SDS011;30941;46.422;18.772;2023-08-24T03:47:15;19.42;;;15.63;;
45198;SDS011;30941;46.422;18.772;2023-08-24T03:49:43;18.17;;;15.18;;
45198;SDS011;30941;46.422;18.772;2023-08-24T03:52:09;16.65;;;13.60;;
45198;SDS011;30941;46.422;18.772;2023-08-24T03:54:34;17.52;;;15.45;;
45198;SDS011;30941;46.422;18.772;2023-08-24T03:57:01;19.70;;;15.15;;
45198;SDS011;30941;46.422;18.772;2023-08-24T03:59:26;17.98;;;14.93;;
45198;SDS011;30941;46.422;18.772;2023-08-24T04:01:52;21.42;;;15.35;;
45198;SDS011;30941;46.422;18.772;2023-08-24T04:04:17;17.33;;;14.50;;
45198;SDS011;30941;46.422;18.772;2023-08-24T04:06:43;20.85;;;16.00;;
45198;SDS011;30941;46.422;18.772;2023-08-24T04:09:08;19.73;;;16.20;;
45198;SDS011;30941;46.422;18.772;2023-08-24T04:11:34;18.45;;;16.42;;
45198;SDS011;30941;46.422;18.772;2023-08-24T04:13:59;21.73;;;15.63;;
45198;SDS011;30941;46.422;18.772;2023-08-24T04:16:25;19.05;;;15.80;;
45198;SDS011;30941;46.422;18.772;2023-08-24T04:18:50;18.17;;;15.80;;
45198;SDS011;30941;46.422;18.772;2023-08-24T04:21:16;20.67;;;16.52;;
45198;SDS011;30941;46.422;18.772;2023-08-24T04:23:41;20.42;;;16.15;;
45198;SDS011;30941;46.422;18.772;2023-08-24T04:26:10;18.08;;;16.15;;
45198;SDS011;30941;46.422;18.772;2023-08-24T04:28:39;19.65;;;16.70;;
45198;SDS011;30941;46.422;18.772;2023-08-24T04:31:04;20.95;;;16.45;;
45198;SDS011;30941;46.422;18.772;2023-08-24T04:33:29;18.83;;;15.18;;
45198;SDS011;30941;46.422;18.772;2023-08-24T04:35:55;18.95;;;16.20;;
45198;SDS011;30941;46.422;18.772;2023-08-24T04:38:20;18.13;;;15.20;;
45198;SDS011;30941;46.422;18.772;2023-08-24T04:43:16;20.13;;;15.30;;
45198;SDS011;30941;46.422;18.772;2023-08-24T04:45:41;17.42;;;15.05;;
45198;SDS011;30941;46.422;18.772;2023-08-24T04:48:07;22.25;;;17.48;;
45198;SDS011;30941;46.422;18.772;2023-08-24T04:50:32;18.90;;;16.08;;
45198;SDS011;30941;46.422;18.772;2023-08-24T04:52:57;20.42;;;16.45;;
45198;SDS011;30941;46.422;18.772;2023-08-24T04:55:23;22.48;;;16.83;;
45198;SDS011;30941;46.422;18.772;2023-08-24T04:57:48;19.02;;;15.80;;
45198;SDS011;30941;46.422;18.772;2023-08-24T05:00:14;20.23;;;15.85;;
45198;SDS011;30941;46.422;18.772;2023-08-24T05:02:42;21.80;;;15.73;;
45198;SDS011;30941;46.422;18.772;2023-08-24T05:05:08;21.13;;;16.38;;
45198;SDS011;30941;46.422;18.772;2023-08-24T05:07:35;21.90;;;17.85;;
45198;SDS011;30941;46.422;18.772;2023-08-24T05:10:02;19.05;;;16.15;;
45198;SDS011;30941;46.422;18.772;2023-08-24T05:12:28;20.90;;;16.58;;
45198;SDS011;30941;46.422;18.772;2023-08-24T05:14:54;20.23;;;17.17;;
45198;SDS011;30941;46.422;18.772;2023-08-24T05:17:20;23.30;;;17.45;;
45198;SDS011;30941;46.422;18.772;2023-08-24T05:19:46;20.13;;;16.05;;
45198;SDS011;30941;46.422;18.772;2023-08-24T05:22:11;23.80;;;17.25;;
45198;SDS011;30941;46.422;18.772;2023-08-24T05:24:37;19.05;;;16.60;;
45198;SDS011;30941;46.422;18.772;2023-08-24T05:27:02;20.48;;;16.40;;
45198;SDS011;30941;46.422;18.772;2023-08-24T05:29:27;21.30;;;16.35;;
45198;SDS011;30941;46.422;18.772;2023-08-24T05:31:53;21.00;;;15.77;;
45198;SDS011;30941;46.422;18.772;2023-08-24T05:34:18;19.80;;;16.35;;
45198;SDS011;30941;46.422;18.772;2023-08-24T05:36:43;20.80;;;15.93;;
45198;SDS011;30941;46.422;18.772;2023-08-24T05:39:09;21.98;;;17.23;;
45198;SDS011;30941;46.422;18.772;2023-08-24T05:41:35;21.65;;;16.90;;
45198;SDS011;30941;46.422;18.772;2023-08-24T05:44:01;19.27;;;17.13;;
45198;SDS011;30941;46.422;18.772;2023-08-24T05:46:27;19.38;;;16.42;;
45198;SDS011;30941;46.422;18.772;2023-08-24T05:48:53;24.02;;;17.13;;
45198;SDS011;30941;46.422;18.772;2023-08-24T05:51:18;22.10;;;16.45;;
45198;SDS011;30941;46.422;18.772;2023-08-24T05:53:44;20.05;;;15.77;;
45198;SDS011;30941;46.422;18.772;2023-08-24T05:56:09;21.13;;;16.05;;
45198;SDS011;30941;46.422;18.772;2023-08-24T05:58:34;19.10;;;15.43;;
45198;SDS011;30941;46.422;18.772;2023-08-24T06:01:00;18.75;;;15.55;;
45198;SDS011;30941;46.422;18.772;2023-08-24T06:03:25;17.50;;;15.15;;
45198;SDS011;30941;46.422;18.772;2023-08-24T06:05:51;20.38;;;15.88;;
45198;SDS011;30941;46.422;18.772;2023-08-24T06:08:17;19.30;;;14.77;;
45198;SDS011;30941;46.422;18.772;2023-08-24T06:10:42;15.63;;;13.68;;
45198;SDS011;30941;46.422;18.772;2023-08-24T06:13:08;16.25;;;13.88;;
45198;SDS011;30941;46.422;18.772;2023-08-24T06:15:33;16.27;;;14.20;;
45198;SDS011;30941;46.422;18.772;2023-08-24T06:17:58;17.02;;;14.20;;
45198;SDS011;30941;46.422;18.772;2023-08-24T06:20:24;15.40;;;13.88;;
45198;SDS011;30941;46.422;18.772;2023-08-24T06:22:50;17.27;;;13.98;;
45198;SDS011;30941;46.422;18.772;2023-08-24T06:25:15;17.67;;;13.73;;
45198;SDS011;30941;46.422;18.772;2023-08-24T06:27:41;16.92;;;14.02;;
45198;SDS011;30941;46.422;18.772;2023-08-24T06:30:06;15.40;;;12.57;;
45198;SDS011;30941;46.422;18.772;2023-08-24T06:32:32;15.45;;;13.23;;
45198;SDS011;30941;46.422;18.772;2023-08-24T06:34:57;14.45;;;12.20;;
45198;SDS011;30941;46.422;18.772;2023-08-24T06:37:23;15.05;;;11.70;;
45198;SDS011;30941;46.422;18.772;2023-08-24T06:39:49;15.48;;;12.50;;
45198;SDS011;30941;46.422;18.772;2023-08-24T06:42:14;15.18;;;13.00;;
45198;SDS011;30941;46.422;18.772;2023-08-24T06:44:39;17.80;;;12.23;;
45198;SDS011;30941;46.422;18.772;2023-08-24T06:47:05;14.10;;;11.50;;
45198;SDS011;30941;46.422;18.772;2023-08-24T06:49:30;15.02;;;11.85;;
45198;SDS011;30941;46.422;18.772;2023-08-24T06:51:56;14.63;;;11.73;;
45198;SDS011;30941;46.422;18.772;2023-08-24T06:54:21;12.43;;;10.85;;
45198;SDS011;30941;46.422;18.772;2023-08-24T06:56:47;13.07;;;10.32;;
45198;SDS011;30941;46.422;18.772;2023-08-24T06:59:13;11.75;;;9.88;;
45198;SDS011;30941;46.422;18.772;2023-08-24T07:01:39;12.82;;;11.48;;
45198;SDS011;30941;46.422;18.772;2023-08-24T07:04:05;14.35;;;10.23;;
45198;SDS011;30941;46.422;18.772;2023-08-24T07:06:32;12.80;;;9.85;;
45198;SDS011;30941;46.422;18.772;2023-08-24T07:08:59;15.80;;;9.75;;
45198;SDS011;30941;46.422;18.772;2023-08-24T07:11:24;11.00;;;9.80;;
45198;SDS011;30941;46.422;18.772;2023-08-24T07:13:51;11.30;;;9.75;;
45198;SDS011;30941;46.422;18.772;2023-08-24T07:16:18;13.75;;;10.48;;
45198;SDS011;30941;46.422;18.772;2023-08-24T07:18:44;13.27;;;10.50;;
45198;SDS011;30941;46.422;18.772;2023-08-24T07:21:09;11.85;;;10.27;;
45198;SDS011;30941;46.422;18.772;2023-08-24T07:23:34;13.90;;;10.07;;
45198;SDS011;30941;46.422;18.772;2023-08-24T07:26:00;13.63;;;10.45;;
45198;SDS011;30941;46.422;18.772;2023-08-24T07:28:25;11.18;;;9.95;;
45198;SDS011;30941;46.422;18.772;2023-08-24T07:30:50;12.50;;;11.20;;
45198;SDS011;30941;46.422;18.772;2023-08-24T07:33:20;13.57;;;10.55;;
45198;SDS011;30941;46.422;18.772;2023-08-24T07:35:46;12.73;;;10.35;;
45198;SDS011;30941;46.422;18.772;2023-08-24T07:38:12;14.57;;;11.10;;
45198;SDS011;30941;46.422;18.772;2023-08-24T07:40:37;15.90;;;11.82;;
45198;SDS011;30941;46.422;18.772;2023-08-24T07:43:03;21.55;;;11.90;;
45198;SDS011;30941;46.422;18.772;2023-08-24T07:45:29;15.32;;;12.27;;
45198;SDS011;30941;46.422;18.772;2023-08-24T07:47:54;16.00;;;11.32;;
45198;SDS011;30941;46.422;18.772;2023-08-24T07:50:20;12.88;;;11.57;;
45198;SDS011;30941;46.422;18.772;2023-08-24T07:52:45;16.63;;;11.63;;
45198;SDS011;30941;46.422;18.772;2023-08-24T07:55:11;13.88;;;11.25;;
45198;SDS011;30941;46.422;18.772;2023-08-24T07:57:36;12.88;;;11.07;;
45198;SDS011;30941;46.422;18.772;2023-08-24T08:00:05;12.15;;;10.57;;
45198;SDS011;30941;46.422;18.772;2023-08-24T08:02:31;11.57;;;10.40;;
45198;SDS011;30941;46.422;18.772;2023-08-24T08:04:57;14.52;;;11.02;;
45198;SDS011;30941;46.422;18.772;2023-08-24T08:07:24;12.43;;;11.15;;
45198;SDS011;30941;46.422;18.772;2023-08-24T08:09:49;12.02;;;10.68;;
45198;SDS011;30941;46.422;18.772;2023-08-24T08:12:15;16.23;;;10.73;;
45198;SDS011;30941;46.422;18.772;2023-08-24T08:14:40;12.07;;;9.93;;
45198;SDS011;30941;46.422;18.772;2023-08-24T08:17:06;13.18;;;9.65;;
45198;SDS011;30941;46.422;18.772;2023-08-24T08:19:31;11.77;;;10.57;;
45198;SDS011;30941;46.422;18.772;2023-08-24T08:21:57;12.32;;;9.68;;
45198;SDS011;30941;46.422;18.772;2023-08-24T08:24:22;11.23;;;10.00;;
45198;SDS011;30941;46.422;18.772;2023-08-24T08:26:48;19.35;;;10.27;;
45198;SDS011;30941;46.422;18.772;2023-08-24T08:29:13;14.32;;;10.20;;
45198;SDS011;30941;46.422;18.772;2023-08-24T08:31:40;13.80;;;9.90;;
45198;SDS011;30941;46.422;18.772;2023-08-24T08:34:06;16.92;;;10.05;;
45198;SDS011;30941;46.422;18.772;2023-08-24T08:36:31;15.10;;;9.32;;
45198;SDS011;30941;46.422;18.772;2023-08-24T08:38:59;13.57;;;9.18;;
45198;SDS011;30941;46.422;18.772;2023-08-24T08:41:27;11.70;;;9.02;;
45198;SDS011;30941;46.422;18.772;2023-08-24T08:43:55;17.83;;;9.02;;
45198;SDS011;30941;46.422;18.772;2023-08-24T08:46:21;10.45;;;8.10;;
45198;SDS011;30941;46.422;18.772;2023-08-24T08:48:46;10.75;;;8.77;;
45198;SDS011;30941;46.422;18.772;2023-08-24T08:51:14;13.07;;;8.40;;
45198;SDS011;30941;46.422;18.772;2023-08-24T08:53:41;10.82;;;8.27;;
45198;SDS011;30941;46.422;18.772;2023-08-24T08:56:06;9.18;;;8.23;;
45198;SDS011;30941;46.422;18.772;2023-08-24T08:58:32;9.15;;;8.20;;
45198;SDS011;30941;46.422;18.772;2023-08-24T09:00:59;9.80;;;7.43;;
45198;SDS011;30941;46.422;18.772;2023-08-24T09:03:28;10.73;;;8.30;;
45198;SDS011;30941;46.422;18.772;2023-08-24T09:05:54;8.75;;;7.85;;
45198;SDS011;30941;46.422;18.772;2023-08-24T09:08:20;9.43;;;7.13;;
45198;SDS011;30941;46.422;18.772;2023-08-24T09:10:45;9.95;;;7.55;;
45198;SDS011;30941;46.422;18.772;2023-08-24T09:13:11;10.23;;;7.25;;
45198;SDS011;30941;46.422;18.772;2023-08-24T09:15:37;11.80;;;7.10;;
45198;SDS011;30941;46.422;18.772;2023-08-24T09:18:02;8.93;;;8.02;;
45198;SDS011;30941;46.422;18.772;2023-08-24T09:20:28;9.57;;;8.15;;
45198;SDS011;30941;46.422;18.772;2023-08-24T09:22:54;10.27;;;7.93;;
45198;SDS011;30941;46.422;18.772;2023-08-24T09:25:22;8.73;;;7.82;;
45198;SDS011;30941;46.422;18.772;2023-08-24T09:27:55;11.70;;;8.23;;
45198;SDS011;30941;46.422;18.772;2023-08-24T09:30:21;10.32;;;7.03;;
45198;SDS011;30941;46.422;18.772;2023-08-24T09:32:47;11.88;;;8.80;;
45198;SDS011;30941;46.422;18.772;2023-08-24T09:35:12;8.35;;;7.05;;
45198;SDS011;30941;46.422;18.772;2023-08-24T09:37:38;9.68;;;8.52;;
45198;SDS011;30941;46.422;18.772;2023-08-24T09:40:05;8.90;;;7.40;;
45198;SDS011;30941;46.422;18.772;2023-08-24T09:42:40;9.65;;;7.72;;
45198;SDS011;30941;46.422;18.772;2023-08-24T09:45:07;9.50;;;7.18;;
45198;SDS011;30941;46.422;18.772;2023-08-24T09:47:35;7.50;;;6.70;;
45198;SDS011;30941;46.422;18.772;2023-08-24T09:50:01;8.77;;;7.03;;
45198;SDS011;30941;46.422;18.772;2023-08-24T09:52:28;8.95;;;7.47;;
45198;SDS011;30941;46.422;18.772;2023-08-24T09:55:02;16.13;;;7.53;;
45198;SDS011;30941;46.422;18.772;2023-08-24T09:57:37;9.07;;;7.40;;
45198;SDS011;30941;46.422;18.772;2023-08-24T10:00:07;10.10;;;7.57;;
45198;SDS011;30941;46.422;18.772;2023-08-24T10:02:37;10.40;;;7.30;;
45198;SDS011;30941;46.422;18.772;2023-08-24T10:05:13;8.60;;;6.75;;
45198;SDS011;30941;46.422;18.772;2023-08-24T10:07:45;9.93;;;6.75;;
45198;SDS011;30941;46.422;18.772;2023-08-24T10:10:13;8.23;;;5.88;;
45198;SDS011;30941;46.422;18.772;2023-08-24T10:12:41;8.18;;;6.30;;
45198;SDS011;30941;46.422;18.772;2023-08-24T10:15:09;8.30;;;6.18;;
45198;SDS011;30941;46.422;18.772;2023-08-24T10:17:37;8.07;;;6.25;;
45198;SDS011;30941;46.422;18.772;2023-08-24T10:20:02;6.72;;;6.03;;
45198;SDS011;30941;46.422;18.772;2023-08-24T10:22:34;10.05;;;6.15;;
45198;SDS011;30941;46.422;18.772;2023-08-24T10:25:00;10.23;;;5.00;;
45198;SDS011;30941;46.422;18.772;2023-08-24T10:27:26;6.90;;;5.18;;
45198;SDS011;30941;46.422;18.772;2023-08-24T10:29:52;7.15;;;5.25;;
45198;SDS011;30941;46.422;18.772;2023-08-24T10:32:19;5.18;;;4.63;;
45198;SDS011;30941;46.422;18.772;2023-08-24T10:34:45;6.65;;;5.32;;
45198;SDS011;30941;46.422;18.772;2023-08-24T10:37:10;7.18;;;4.70;;
45198;SDS011;30941;46.422;18.772;2023-08-24T10:39:37;10.02;;;5.25;;
45198;SDS011;30941;46.422;18.772;2023-08-24T10:42:03;5.85;;;4.72;;
45198;SDS011;30941;46.422;18.772;2023-08-24T10:44:35;5.65;;;4.78;;
45198;SDS011;30941;46.422;18.772;2023-08-24T10:47:09;7.20;;;4.82;;
45198;SDS011;30941;46.422;18.772;2023-08-24T10:49:42;6.13;;;4.57;;
45198;SDS011;30941;46.422;18.772;2023-08-24T10:52:18;5.68;;;4.40;;
45198;SDS011;30941;46.422;18.772;2023-08-24T10:54:45;6.03;;;5.00;;
45198;SDS011;30941;46.422;18.772;2023-08-24T11:00:12;9.70;;;4.95;;
45198;SDS011;30941;46.422;18.772;2023-08-24T11:02:41;4.88;;;4.38;;
45198;SDS011;30941;46.422;18.772;2023-08-24T11:05:19;5.75;;;4.57;;
45198;SDS011;30941;46.422;18.772;2023-08-24T11:10:25;6.32;;;4.75;;
45198;SDS011;30941;46.422;18.772;2023-08-24T11:18:19;7.25;;;5.47;;
45198;SDS011;30941;46.422;18.772;2023-08-24T11:20:46;9.25;;;6.38;;
45198;SDS011;30941;46.422;18.772;2023-08-24T11:23:16;9.90;;;6.00;;
45198;SDS011;30941;46.422;18.772;2023-08-24T11:25:41;7.70;;;5.78;;
45198;SDS011;30941;46.422;18.772;2023-08-24T11:28:07;11.35;;;6.25;;
45198;SDS011;30941;46.422;18.772;2023-08-24T11:30:33;11.60;;;6.70;;
45198;SDS011;30941;46.422;18.772;2023-08-24T11:32:59;6.30;;;5.70;;
45198;SDS011;30941;46.422;18.772;2023-08-24T11:35:25;7.00;;;5.60;;
45198;SDS011;30941;46.422;18.772;2023-08-24T11:37:54;7.97;;;5.75;;
45198;SDS011;30941;46.422;18.772;2023-08-24T11:40:22;8.68;;;5.85;;
45198;SDS011;30941;46.422;18.772;2023-08-24T11:42:54;6.63;;;5.65;;
45198;SDS011;30941;46.422;18.772;2023-08-24T11:45:22;7.70;;;5.28;;
45198;SDS011;30941;46.422;18.772;2023-08-24T11:47:48;6.18;;;5.43;;
45198;SDS011;30941;46.422;18.772;2023-08-24T11:50:16;9.32;;;5.20;;
45198;SDS011;30941;46.422;18.772;2023-08-24T11:52:42;9.00;;;6.55;;
45198;SDS011;30941;46.422;18.772;2023-08-24T11:55:08;7.88;;;5.30;;
45198;SDS011;30941;46.422;18.772;2023-08-24T11:57:37;7.43;;;5.88;;
45198;SDS011;30941;46.422;18.772;2023-08-24T12:00:03;8.32;;;6.18;;
45198;SDS011;30941;46.422;18.772;2023-08-24T12:02:30;11.05;;;6.55;;
45198;SDS011;30941;46.422;18.772;2023-08-24T12:04:56;8.32;;;5.68;;
45198;SDS011;30941;46.422;18.772;2023-08-24T12:07:22;6.78;;;5.90;;
45198;SDS011;30941;46.422;18.772;2023-08-24T12:09:48;9.70;;;5.85;;
45198;SDS011;30941;46.422;18.772;2023-08-24T12:12:17;6.32;;;5.45;;
45198;SDS011;30941;46.422;18.772;2023-08-24T12:14:48;7.00;;;6.15;;
45198;SDS011;30941;46.422;18.772;2023-08-24T12:17:14;7.18;;;5.60;;
45198;SDS011;30941;46.422;18.772;2023-08-24T12:19:41;8.90;;;6.00;;
45198;SDS011;30941;46.422;18.772;2023-08-24T12:22:13;9.13;;;5.65;;
45198;SDS011;30941;46.422;18.772;2023-08-24T12:24:45;6.35;;;5.60;;
45198;SDS011;30941;46.422;18.772;2023-08-24T12:27:17;8.30;;;6.35;;
45198;SDS011;30941;46.422;18.772;2023-08-24T12:29:46;6.93;;;5.30;;
45198;SDS011;30941;46.422;18.772;2023-08-24T12:32:12;8.63;;;5.50;;
45198;SDS011;30941;46.422;18.772;2023-08-24T12:34:38;10.02;;;5.80;;
45198;SDS011;30941;46.422;18.772;2023-08-24T12:37:03;8.60;;;6.10;;
45198;SDS011;30941;46.422;18.772;2023-08-24T12:39:32;8.60;;;5.35;;
45198;SDS011;30941;46.422;18.772;2023-08-24T12:42:00;7.57;;;5.55;;
45198;SDS011;30941;46.422;18.772;2023-08-24T12:44:25;7.15;;;5.80;;
45198;SDS011;30941;46.422;18.772;2023-08-24T12:46:50;5.70;;;5.10;;
45198;SDS011;30941;46.422;18.772;2023-08-24T12:49:16;6.53;;;5.63;;
45198;SDS011;30941;46.422;18.772;2023-08-24T12:51:42;6.75;;;5.20;;
45198;SDS011;30941;46.422;18.772;2023-08-24T12:54:07;7.03;;;5.05;;
45198;SDS011;30941;46.422;18.772;2023-08-24T12:56:33;7.15;;;5.70;;
45198;SDS011;30941;46.422;18.772;2023-08-24T12:58:58;7.60;;;5.30;;
45198;SDS011;30941;46.422;18.772;2023-08-24T13:01:23;7.18;;;5.47;;
45198;SDS011;30941;46.422;18.772;2023-08-24T13:03:49;8.77;;;5.57;;
45198;SDS011;30941;46.422;18.772;2023-08-24T13:06:14;10.93;;;5.90;;
45198;SDS011;30941;46.422;18.772;2023-08-24T13:08:40;8.30;;;5.60;;
45198;SDS011;30941;46.422;18.772;2023-08-24T13:11:05;13.00;;;6.03;;
45198;SDS011;30941;46.422;18.772;2023-08-24T13:13:30;7.22;;;5.15;;
45198;SDS011;30941;46.422;18.772;2023-08-24T13:15:56;7.22;;;5.45;;
45198;SDS011;30941;46.422;18.772;2023-08-24T13:18:21;8.27;;;5.30;;
45198;SDS011;30941;46.422;18.772;2023-08-24T13:20:47;9.93;;;5.82;;
45198;SDS011;30941;46.422;18.772;2023-08-24T13:23:12;9.82;;;5.22;;
45198;SDS011;30941;46.422;18.772;2023-08-24T13:25:38;9.77;;;5.60;;
45198;SDS011;30941;46.422;18.772;2023-08-24T13:28:03;6.53;;;5.40;;
45198;SDS011;30941;46.422;18.772;2023-08-24T13:30:29;6.53;;;5.43;;
45198;SDS011;30941;46.422;18.772;2023-08-24T13:32:54;7.13;;;5.50;;
45198;SDS011;30941;46.422;18.772;2023-08-24T13:35:19;9.48;;;5.43;;
45198;SDS011;30941;46.422;18.772;2023-08-24T13:37:45;5.97;;;5.38;;
45198;SDS011;30941;46.422;18.772;2023-08-24T13:40:11;7.22;;;5.05;;
45198;SDS011;30941;46.422;18.772;2023-08-24T13:42:37;11.15;;;6.20;;
45198;SDS011;30941;46.422;18.772;2023-08-24T13:45:02;7.03;;;5.30;;
45198;SDS011;30941;46.422;18.772;2023-08-24T13:47:28;7.18;;;5.20;;
45198;SDS011;30941;46.422;18.772;2023-08-24T13:49:53;10.15;;;5.47;;
45198;SDS011;30941;46.422;18.772;2023-08-24T13:52:19;8.55;;;5.28;;
45198;SDS011;30941;46.422;18.772;2023-08-24T13:54:44;7.15;;;5.40;;
45198;SDS011;30941;46.422;18.772;2023-08-24T13:57:10;6.40;;;5.05;;
45198;SDS011;30941;46.422;18.772;2023-08-24T13:59:35;7.93;;;5.40;;
45198;SDS011;30941;46.422;18.772;2023-08-24T14:02:01;7.15;;;5.43;;
45198;SDS011;30941;46.422;18.772;2023-08-24T14:04:26;5.85;;;4.72;;
45198;SDS011;30941;46.422;18.772;2023-08-24T14:06:52;7.20;;;5.13;;
45198;SDS011;30941;46.422;18.772;2023-08-24T14:09:17;8.00;;;5.50;;
45198;SDS011;30941;46.422;18.772;2023-08-24T14:11:42;10.43;;;5.53;;
45198;SDS011;30941;46.422;18.772;2023-08-24T14:14:08;6.72;;;5.15;;
45198;SDS011;30941;46.422;18.772;2023-08-24T14:16:33;7.32;;;5.47;;
45198;SDS011;30941;46.422;18.772;2023-08-24T14:18:59;9.07;;;5.22;;
45198;SDS011;30941;46.422;18.772;2023-08-24T14:21:24;8.85;;;5.13;;
45198;SDS011;30941;46.422;18.772;2023-08-24T14:23:50;7.72;;;5.55;;
45198;SDS011;30941;46.422;18.772;2023-08-24T14:26:15;8.15;;;5.65;;
45198;SDS011;30941;46.422;18.772;2023-08-24T14:31:16;6.95;;;4.88;;
45198;SDS011;30941;46.422;18.772;2023-08-24T14:33:41;5.60;;;4.90;;
45198;SDS011;30941;46.422;18.772;2023-08-24T14:36:07;6.85;;;5.40;;
45198;SDS011;30941;46.422;18.772;2023-08-24T14:38:34;7.03;;;5.53;;